Time;durP1;ratioP1;P1;durP2;ratioP2;P2;SDS_P1;SDS_P2;PMS_P1;PMS_P2;Temp;Humidity;BMP_temperature;BMP_pressure;BME280_temperature;BME280_humidity;BME280_pressure;Samples;Min_cycle;Max_cycle;Signal;HPM_P1;HPM_P2
2021/11/24 00:02:16;;;;;;;15.23;1.27;;;-0.20;98.30;;;;;;5078206;28;20176;-82
2021/11/24 00:04:42;;;;;;;1.13;1.10;;;-0.20;98.40;;;;;;5077210;28;20195;-81
2021/11/24 00:07:08;;;;;;;0.70;0.60;;;-0.20;98.30;;;;;;5078125;28;20175;-81
2021/11/24 00:09:34;;;;;;;0.40;0.40;;;-0.20;98.20;;;;;;5077515;28;20219;-81
2021/11/24 00:12:03;;;;;;;0.60;0.50;;;-0.20;98.10;;;;;;5077395;28;20505;-81
2021/11/24 00:14:29;;;;;;;0.70;0.60;;;-0.20;98.10;;;;;;5077209;28;20414;-81
2021/11/24 00:16:54;;;;;;;2.30;2.07;;;-0.20;98.20;;;;;;5076878;28;20168;-82
2021/11/24 00:19:20;;;;;;;4.03;1.70;;;-0.20;98.40;;;;;;5077157;28;20429;-81
2021/11/24 00:21:46;;;;;;;1.70;1.20;;;-0.20;98.40;;;;;;5077466;28;20168;-82
2021/11/24 00:24:12;;;;;;;0.50;0.50;;;-0.20;98.40;;;;;;5077027;28;20175;-81
2021/11/24 00:26:37;;;;;;;3.23;1.27;;;-0.20;98.40;;;;;;5076927;28;20418;-81
2021/11/24 00:29:03;;;;;;;2.87;1.73;;;-0.20;98.50;;;;;;5077118;28;20199;-81
2021/11/24 00:31:29;;;;;;;2.23;2.10;;;-0.20;98.50;;;;;;5076770;28;20195;-81
2021/11/24 00:33:55;;;;;;;0.73;0.63;;;-0.20;98.40;;;;;;5077769;28;20410;-81
2021/11/24 00:36:21;;;;;;;0.75;0.68;;;-0.20;98.30;;;;;;5078027;28;20422;-81
2021/11/24 00:38:46;;;;;;;0.50;0.40;;;-0.30;98.10;;;;;;5077794;28;20215;-81
2021/11/24 00:41:12;;;;;;;0.53;0.47;;;-0.30;98.00;;;;;;5078368;28;20447;-82
2021/11/24 00:43:38;;;;;;;1.17;0.77;;;-0.30;98.20;;;;;;5077972;28;20264;-81
2021/11/24 00:46:03;;;;;;;2.47;2.17;;;-0.40;98.60;;;;;;5079702;28;20414;-82
2021/11/24 00:48:29;;;;;;;1.63;1.23;;;-0.40;99.10;;;;;;5080196;28;20525;-82
2021/11/24 00:50:55;;;;;;;0.67;0.40;;;-0.40;99.10;;;;;;5079907;28;20302;-80
2021/11/24 00:53:21;;;;;;;0.70;0.60;;;-0.40;99.00;;;;;;5078013;28;20622;-80
2021/11/24 00:55:47;;;;;;;0.50;0.40;;;-0.40;98.90;;;;;;5078436;28;20513;-80
2021/11/24 00:58:12;;;;;;;0.60;0.50;;;-0.40;98.70;;;;;;5078528;28;20434;-80
2021/11/24 01:00:38;;;;;;;1.00;0.90;;;-0.40;98.50;;;;;;5078797;28;20425;-80
2021/11/24 01:03:04;;;;;;;1.27;1.17;;;-0.40;98.30;;;;;;5078656;28;20459;-80
2021/11/24 01:05:30;;;;;;;0.50;0.40;;;-0.40;98.40;;;;;;5078002;28;20437;-80
2021/11/24 01:07:56;;;;;;;1.10;1.00;;;-0.40;98.50;;;;;;5078253;28;20892;-80
2021/11/24 01:10:22;;;;;;;1.33;1.23;;;-0.40;98.60;;;;;;5077610;28;20524;-80
2021/11/24 01:12:48;;;;;;;8.67;1.00;;;-0.40;98.70;;;;;;5078008;28;20168;-80
2021/11/24 01:15:15;;;;;;;0.70;0.60;;;-0.40;98.80;;;;;;5077335;28;20388;-80
2021/11/24 01:17:40;;;;;;;7.28;1.95;;;-0.40;98.90;;;;;;5081817;28;20434;-80
2021/11/24 01:20:07;;;;;;;1.80;1.02;;;-0.40;98.90;;;;;;5082375;28;20308;-80
2021/11/24 01:22:33;;;;;;;4.32;1.15;;;-0.40;98.90;;;;;;5082420;28;20190;-80
2021/11/24 01:24:59;;;;;;;1.73;0.93;;;-0.40;98.70;;;;;;5081839;28;20229;-80
2021/11/24 01:27:25;;;;;;;0.67;0.63;;;-0.40;98.60;;;;;;5081634;28;20180;-80
2021/11/24 01:29:50;;;;;;;0.75;0.65;;;-0.40;98.60;;;;;;5080739;28;20200;-80
2021/11/24 01:32:16;;;;;;;1.10;1.00;;;-0.40;98.60;;;;;;5081038;28;20195;-79
2021/11/24 01:34:42;;;;;;;0.50;0.40;;;-0.40;98.70;;;;;;5080869;28;20173;-80
2021/11/24 01:37:08;;;;;;;3.60;1.17;;;-0.50;98.80;;;;;;5080880;28;20414;-79
2021/11/24 01:39:33;;;;;;;0.60;0.50;;;-0.50;98.90;;;;;;5080142;28;20787;-80
2021/11/24 01:41:59;;;;;;;1.33;0.80;;;-0.50;98.80;;;;;;5080308;28;20210;-79
2021/11/24 01:44:27;;;;;;;1.27;1.17;;;-0.50;99.00;;;;;;5079189;28;20493;-80
2021/11/24 01:46:56;;;;;;;0.75;0.70;;;-0.50;99.00;;;;;;5080095;28;20405;-80
2021/11/24 01:49:23;;;;;;;0.68;0.60;;;-0.50;98.90;;;;;;5080637;28;20626;-80
2021/11/24 01:51:49;;;;;;;0.60;0.50;;;-0.60;99.00;;;;;;5080815;28;20200;-80
2021/11/24 01:54:16;;;;;;;0.93;0.82;;;-0.60;99.00;;;;;;5079542;28;20226;-80
2021/11/24 01:56:42;;;;;;;1.60;1.15;;;-0.60;99.00;;;;;;5079805;28;20211;-79
2021/11/24 01:59:10;;;;;;;0.50;0.40;;;-0.60;98.90;;;;;;5079904;28;20643;-80
2021/11/24 02:01:37;;;;;;;0.75;0.70;;;-0.60;98.90;;;;;;5080085;28;20268;-80
2021/11/24 02:04:03;;;;;;;0.65;0.55;;;-0.60;99.00;;;;;;5080171;28;20191;-78
2021/11/24 02:06:29;;;;;;;0.50;0.40;;;-0.60;99.10;;;;;;5080170;28;20639;-79
2021/11/24 02:08:55;;;;;;;0.88;0.65;;;-0.70;98.80;;;;;;5079539;28;20214;-79
2021/11/24 02:11:21;;;;;;;1.90;1.10;;;-0.70;98.40;;;;;;5079578;28;20199;-80
2021/11/24 02:13:46;;;;;;;0.70;0.53;;;-0.80;98.30;;;;;;5079761;28;20459;-80
2021/11/24 02:16:12;;;;;;;1.03;0.70;;;-0.80;98.20;;;;;;5079725;28;20420;-80
2021/11/24 02:18:38;;;;;;;2.63;1.23;;;-0.80;98.10;;;;;;5079218;28;20944;-80
2021/11/24 02:21:04;;;;;;;0.40;0.37;;;-0.80;98.20;;;;;;5079004;28;20627;-79
2021/11/24 02:23:29;;;;;;;1.80;0.93;;;-0.80;98.80;;;;;;5079816;28;20639;-80
2021/11/24 02:25:55;;;;;;;1.70;0.90;;;-0.80;99.00;;;;;;5079364;28;20168;-80
2021/11/24 02:28:21;;;;;;;0.53;0.43;;;-0.80;99.10;;;;;;5078495;28;20191;-80
2021/11/24 02:30:48;;;;;;;0.53;0.47;;;-0.80;99.10;;;;;;5080166;28;20199;-80
2021/11/24 02:33:14;;;;;;;0.52;0.45;;;-0.90;99.10;;;;;;5079826;28;20441;-80
2021/11/24 02:35:44;;;;;;;2.78;1.50;;;-0.90;99.10;;;;;;5079568;28;20168;-80
2021/11/24 02:38:14;;;;;;;1.48;0.60;;;-0.90;98.90;;;;;;5079997;28;20623;-80
2021/11/24 02:40:41;;;;;;;0.57;0.47;;;-0.90;98.80;;;;;;5079979;28;20525;-80
2021/11/24 02:43:07;;;;;;;0.60;0.60;;;-0.90;98.80;;;;;;5079397;28;20192;-80
2021/11/24 02:45:33;;;;;;;1.48;0.68;;;-0.90;98.80;;;;;;5079771;28;20178;-81
2021/11/24 02:47:59;;;;;;;0.98;0.75;;;-0.90;98.70;;;;;;5079313;28;20214;-81
2021/11/24 02:50:25;;;;;;;2.53;2.23;;;-0.90;98.60;;;;;;5078306;28;20262;-81
2021/11/24 02:52:51;;;;;;;0.50;0.40;;;-0.90;98.40;;;;;;5079402;28;20413;-81
2021/11/24 02:55:17;;;;;;;0.50;0.40;;;-0.90;98.30;;;;;;5080385;28;20622;-81
2021/11/24 02:57:47;;;;;;;0.30;0.30;;;-1.00;98.30;;;;;;5079039;28;20241;-81
2021/11/24 03:00:17;;;;;;;0.30;0.30;;;-1.00;98.30;;;;;;5080723;28;20255;-81
2021/11/24 03:02:44;;;;;;;0.93;0.93;;;-1.00;98.40;;;;;;5079877;28;20615;-82
2021/11/24 03:05:10;;;;;;;7.95;1.65;;;-1.00;98.80;;;;;;5079412;28;20164;-81
2021/11/24 03:07:36;;;;;;;4.50;0.88;;;-1.00;99.00;;;;;;5078272;28;20540;-81
2021/11/24 03:10:04;;;;;;;0.63;0.60;;;-1.00;99.10;;;;;;5078729;28;20211;-81
2021/11/24 03:12:30;;;;;;;1.13;1.02;;;-1.00;99.10;;;;;;5079014;28;20260;-81
2021/11/24 03:14:56;;;;;;;0.50;0.40;;;-1.00;99.10;;;;;;5078280;28;20164;-81
2021/11/24 03:17:22;;;;;;;0.50;0.40;;;-1.00;99.10;;;;;;5077491;28;20437;-81
2021/11/24 03:19:48;;;;;;;1.13;1.03;;;-1.00;99.10;;;;;;5076932;28;20283;-82
2021/11/24 03:22:21;;;;;;;1.02;1.00;;;-1.00;99.10;;;;;;5077035;28;20940;-81
2021/11/24 03:24:55;;;;;;;1.90;1.77;;;-1.00;99.10;;;;;;5076778;28;20172;-81
2021/11/24 03:27:27;;;;;;;0.50;0.40;;;-1.00;99.10;;;;;;5076908;28;20175;-81
2021/11/24 03:29:53;;;;;;;0.30;0.30;;;-1.00;99.10;;;;;;5076708;28;20192;-81
2021/11/24 03:32:19;;;;;;;1.48;0.95;;;-1.00;99.10;;;;;;5077205;28;20207;-81
2021/11/24 03:34:45;;;;;;;1.85;1.42;;;-1.00;99.10;;;;;;5081433;28;20687;-82
2021/11/24 03:37:11;;;;;;;1.43;1.33;;;-1.00;99.10;;;;;;5077865;28;20688;-81
2021/11/24 03:39:37;;;;;;;0.35;0.32;;;-1.00;99.10;;;;;;5076495;28;20426;-81
2021/11/24 03:42:03;;;;;;;0.90;0.80;;;-1.00;99.10;;;;;;5076394;28;20739;-81
2021/11/24 03:44:29;;;;;;;1.00;0.98;;;-0.90;99.10;;;;;;5076421;28;20429;-82
2021/11/24 03:46:54;;;;;;;0.60;0.50;;;-0.90;99.10;;;;;;5076414;28;20538;-81
2021/11/24 03:49:21;;;;;;;0.83;0.73;;;-0.90;99.10;;;;;;5076569;28;20462;-81
2021/11/24 03:51:48;;;;;;;0.70;0.60;;;-0.90;99.10;;;;;;5078208;28;20461;-81
2021/11/24 03:54:14;;;;;;;2.55;1.33;;;-0.90;99.10;;;;;;5075939;28;20172;-81
2021/11/24 03:56:39;;;;;;;1.77;1.67;;;-0.90;99.10;;;;;;5076241;28;20175;-82
2021/11/24 03:59:05;;;;;;;1.50;0.83;;;-0.90;99.10;;;;;;5076146;28;20471;-81
2021/11/24 04:01:31;;;;;;;0.50;0.40;;;-0.90;99.00;;;;;;5076267;28;20570;-81
2021/11/24 04:03:57;;;;;;;0.77;0.60;;;-0.90;98.80;;;;;;5075631;28;20172;-81
2021/11/24 04:06:25;;;;;;;0.60;0.50;;;-0.90;98.70;;;;;;5075985;28;20410;-82
2021/11/24 04:08:52;;;;;;;1.13;1.02;;;-0.90;98.60;;;;;;5076602;28;20195;-81
2021/11/24 04:11:17;;;;;;;1.67;1.17;;;-1.00;98.70;;;;;;5076385;28;20206;-82
2021/11/24 04:13:43;;;;;;;0.50;0.40;;;-1.00;98.70;;;;;;5076202;28;20172;-82
2021/11/24 04:16:09;;;;;;;2.93;0.90;;;-1.00;98.70;;;;;;5075795;28;20392;-81
2021/11/24 04:18:35;;;;;;;0.50;0.43;;;-1.00;98.80;;;;;;5076174;28;20447;-81
2021/11/24 04:21:00;;;;;;;0.60;0.50;;;-1.00;98.80;;;;;;5075786;28;20418;-81
2021/11/24 04:23:26;;;;;;;0.87;0.77;;;-1.00;98.90;;;;;;5075750;28;20176;-81
2021/11/24 04:25:52;;;;;;;1.20;1.10;;;-1.10;98.90;;;;;;5076175;28;20917;-81
2021/11/24 04:28:18;;;;;;;0.83;0.60;;;-1.10;99.10;;;;;;5076324;28;20462;-81
2021/11/24 04:30:44;;;;;;;0.70;0.60;;;-1.10;99.10;;;;;;5076535;28;20445;-81
2021/11/24 04:33:10;;;;;;;0.60;0.50;;;-1.10;99.10;;;;;;5076597;28;20168;-81
2021/11/24 04:35:36;;;;;;;11.13;1.43;;;-1.10;99.10;;;;;;5077230;28;20175;-81
2021/11/24 04:38:02;;;;;;;0.40;0.38;;;-1.10;99.10;;;;;;5076145;28;20563;-81
2021/11/24 04:40:28;;;;;;;0.60;0.50;;;-1.10;99.10;;;;;;5076086;28;20213;-81
2021/11/24 04:42:54;;;;;;;1.48;1.05;;;-1.10;99.10;;;;;;5075671;28;20241;-81
2021/11/24 04:45:21;;;;;;;5.18;0.77;;;-1.10;99.10;;;;;;5076279;28;20183;-81
2021/11/24 04:47:47;;;;;;;0.60;0.50;;;-1.00;99.10;;;;;;5076130;28;20563;-81
2021/11/24 04:50:14;;;;;;;0.50;0.40;;;-1.10;99.10;;;;;;5076751;28;20283;-81
2021/11/24 04:52:40;;;;;;;8.77;0.95;;;-1.00;99.10;;;;;;5076364;28;20980;-81
2021/11/24 04:55:06;;;;;;;30.77;2.00;;;-1.10;99.10;;;;;;5076677;28;20172;-82
2021/11/24 04:57:32;;;;;;;1.35;1.17;;;-1.10;99.10;;;;;;5077049;28;20585;-82
2021/11/24 04:59:57;;;;;;;0.70;0.70;;;-1.10;99.10;;;;;;5095090;28;20191;-82
2021/11/24 05:02:23;;;;;;;1.13;1.10;;;-1.20;99.00;;;;;;5076777;28;20201;-82
2021/11/24 05:04:49;;;;;;;2.10;2.00;;;-1.20;99.10;;;;;;5077141;28;20175;-82
2021/11/24 05:07:15;;;;;;;0.47;0.40;;;-1.20;99.00;;;;;;5076075;28;20413;-82
2021/11/24 05:09:40;;;;;;;0.70;0.60;;;-1.20;98.90;;;;;;5076939;28;20434;-82
2021/11/24 05:12:07;;;;;;;0.40;0.40;;;-1.20;98.90;;;;;;5075795;28;20216;-82
2021/11/24 05:14:36;;;;;;;4.60;0.98;;;-1.20;99.10;;;;;;5075665;28;20513;-82
2021/11/24 05:17:05;;;;;;;0.50;0.40;;;-1.30;99.10;;;;;;5075547;28;20172;-82
2021/11/24 05:19:34;;;;;;;0.77;0.70;;;-1.30;99.10;;;;;;5075710;28;20249;-82
2021/11/24 05:22:00;;;;;;;0.45;0.43;;;-1.30;99.10;;;;;;5075021;28;20742;-82
2021/11/24 05:24:25;;;;;;;0.73;0.70;;;-1.30;99.10;;;;;;5075414;28;20199;-82
2021/11/24 05:26:51;;;;;;;0.50;0.40;;;-1.30;99.10;;;;;;5075346;28;20462;-82
2021/11/24 05:29:17;;;;;;;0.50;0.40;;;-1.30;99.10;;;;;;5075577;28;20437;-82
2021/11/24 05:31:43;;;;;;;12.27;2.40;;;-1.30;99.10;;;;;;5075067;28;20204;-82
2021/11/24 05:34:09;;;;;;;6.73;0.70;;;-1.30;99.10;;;;;;5075302;28;20251;-82
2021/11/24 05:36:35;;;;;;;3.17;2.13;;;-1.30;99.10;;;;;;5075769;28;20412;-82
2021/11/24 05:39:05;;;;;;;0.95;0.70;;;-1.30;99.10;;;;;;5076721;28;20230;-82
2021/11/24 05:41:31;;;;;;;0.85;0.75;;;-1.30;99.10;;;;;;5076063;28;20524;-82
2021/11/24 05:44:06;;;;;;;5.75;1.05;;;-1.40;99.10;;;;;;5075144;28;20204;-82
2021/11/24 05:46:46;;;;;;;0.43;0.40;;;-1.30;99.10;;;;;;5075413;28;20172;-82
2021/11/24 05:49:13;;;;;;;1.48;1.38;;;-1.40;99.10;;;;;;5075153;28;20286;-82
2021/11/24 05:51:39;;;;;;;0.50;0.40;;;-1.40;99.10;;;;;;5075288;28;20203;-82
2021/11/24 05:54:05;;;;;;;0.57;0.47;;;-1.40;99.10;;;;;;5074597;28;20175;-82
2021/11/24 05:56:33;;;;;;;0.30;0.30;;;-1.40;99.10;;;;;;5075033;28;20640;-82
2021/11/24 05:59:00;;;;;;;1.83;1.23;;;-1.40;99.10;;;;;;5075041;28;20433;-82
2021/11/24 06:01:26;;;;;;;1.80;1.70;;;-1.40;99.10;;;;;;5074784;28;20172;-82
2021/11/24 06:03:52;;;;;;;1.58;0.57;;;-1.40;99.10;;;;;;5076694;28;20274;-82
2021/11/24 06:06:18;;;;;;;0.63;0.50;;;-1.40;99.10;;;;;;5079330;28;20605;-82
2021/11/24 06:08:43;;;;;;;0.93;0.90;;;-1.40;99.10;;;;;;5079324;28;20520;-82
2021/11/24 06:11:09;;;;;;;1.95;1.50;;;-1.40;99.10;;;;;;5080181;28;20234;-82
2021/11/24 06:13:35;;;;;;;3.70;0.83;;;-1.40;99.10;;;;;;5078330;28;20175;-82
2021/11/24 06:16:01;;;;;;;0.80;0.70;;;-1.40;99.10;;;;;;5079251;28;20172;-82
2021/11/24 06:18:26;;;;;;;0.63;0.57;;;-1.40;99.10;;;;;;5077939;28;20497;-82
2021/11/24 06:20:52;;;;;;;0.60;0.50;;;-1.40;99.10;;;;;;5078440;28;20550;-82
2021/11/24 06:23:18;;;;;;;0.40;0.40;;;-1.40;99.10;;;;;;5096960;28;20176;-82
2021/11/24 06:25:43;;;;;;;1.13;1.03;;;-1.50;99.10;;;;;;5078534;28;20180;-82
2021/11/24 06:28:09;;;;;;;1.33;1.23;;;-1.50;99.10;;;;;;5078145;28;20272;-82
2021/11/24 06:30:35;;;;;;;4.70;1.98;;;-1.60;99.10;;;;;;5077994;28;20210;-82
2021/11/24 06:33:01;;;;;;;0.60;0.50;;;-1.60;99.10;;;;;;5078319;28;20172;-82
2021/11/24 06:35:27;;;;;;;1.40;1.30;;;-1.60;99.10;;;;;;5077966;28;20506;-82
2021/11/24 06:37:52;;;;;;;4.23;2.87;;;-1.50;99.10;;;;;;5079217;28;20175;-82
2021/11/24 06:40:18;;;;;;;2.30;1.53;;;-1.50;99.10;;;;;;5078281;28;20463;-81
2021/11/24 06:42:45;;;;;;;0.82;0.73;;;-1.50;99.10;;;;;;5062050;28;20634;-81
2021/11/24 06:45:13;;;;;;;1.13;0.70;;;-1.50;99.10;;;;;;5078214;28;20180;-81
2021/11/24 06:47:40;;;;;;;0.60;0.50;;;-1.50;99.10;;;;;;5078369;28;20388;-81
2021/11/24 06:50:07;;;;;;;0.85;0.80;;;-1.60;99.10;;;;;;5078100;28;20191;-81
2021/11/24 06:52:32;;;;;;;1.80;1.70;;;-1.60;99.10;;;;;;5077926;28;20219;-81
2021/11/24 06:54:58;;;;;;;2.97;2.10;;;-1.60;99.10;;;;;;5077962;28;20772;-81
2021/11/24 06:57:24;;;;;;;0.40;0.40;;;-1.60;99.10;;;;;;5077794;28;20481;-81
2021/11/24 06:59:50;;;;;;;9.33;1.47;;;-1.60;99.10;;;;;;5077543;28;20397;-81
2021/11/24 07:02:16;;;;;;;0.87;0.77;;;-1.50;99.10;;;;;;5077566;28;20215;-81
2021/11/24 07:04:41;;;;;;;0.60;0.50;;;-1.50;99.10;;;;;;5078748;28;20405;-81
2021/11/24 07:07:07;;;;;;;1.00;0.90;;;-1.40;99.10;;;;;;5078870;28;20433;-81
2021/11/24 07:09:33;;;;;;;1.50;1.17;;;-1.40;99.10;;;;;;5078431;28;20538;-80
2021/11/24 07:11:59;;;;;;;1.57;1.27;;;-1.40;99.10;;;;;;5078713;28;20485;-81
2021/11/24 07:14:24;;;;;;;3.43;2.00;;;-1.40;99.10;;;;;;5078243;28;20385;-81
2021/11/24 07:16:50;;;;;;;1.30;1.20;;;-1.30;99.10;;;;;;5077721;28;20926;-81
2021/11/24 07:19:16;;;;;;;1.17;1.07;;;-1.30;99.10;;;;;;5077881;28;20348;-81
2021/11/24 07:21:47;;;;;;;0.95;0.88;;;-1.20;99.10;;;;;;5077477;28;20252;-81
2021/11/24 07:24:17;;;;;;;0.73;0.63;;;-1.20;99.10;;;;;;5077634;28;20540;-81
2021/11/24 07:26:43;;;;;;;0.90;0.80;;;-1.10;99.10;;;;;;5077553;28;20176;-81
2021/11/24 07:29:10;;;;;;;1.58;1.00;;;-1.00;99.10;;;;;;5077422;28;20223;-81
2021/11/24 07:31:35;;;;;;;3.70;1.45;;;-1.00;99.10;;;;;;5077644;28;20200;-81
2021/11/24 07:34:01;;;;;;;0.30;0.30;;;-0.90;99.10;;;;;;5076928;28;20183;-81
2021/11/24 07:36:27;;;;;;;0.83;0.73;;;-0.80;99.10;;;;;;5076960;28;20179;-81
2021/11/24 07:38:53;;;;;;;4.93;1.50;;;-0.60;99.10;;;;;;5077246;28;20525;-81
2021/11/24 07:41:19;;;;;;;1.50;1.43;;;-0.50;99.10;;;;;;5077143;28;20906;-81
2021/11/24 07:43:45;;;;;;;0.75;0.70;;;-0.40;99.10;;;;;;5076576;28;20503;-81
2021/11/24 07:46:10;;;;;;;4.57;1.63;;;-0.30;99.10;;;;;;5076936;28;20207;-81
2021/11/24 07:48:36;;;;;;;4.87;1.60;;;-0.20;99.10;;;;;;5076437;28;20426;-81
2021/11/24 07:51:02;;;;;;;1.03;0.93;;;-0.20;99.10;;;;;;5076601;28;20457;-81
2021/11/24 07:53:28;;;;;;;2.38;2.17;;;-0.20;99.10;;;;;;5076535;28;20258;-81
2021/11/24 07:55:54;;;;;;;1.23;1.13;;;-0.10;99.10;;;;;;5076379;28;20587;-81
2021/11/24 07:58:20;;;;;;;1.13;0.77;;;0.00;99.10;;;;;;5076511;28;20217;-81
2021/11/24 08:00:47;;;;;;;3.60;1.17;;;0.10;99.10;;;;;;5076896;28;20414;-81
2021/11/24 08:03:13;;;;;;;0.90;0.80;;;0.20;99.10;;;;;;5076432;28;20196;-81
2021/11/24 08:05:39;;;;;;;1.30;1.20;;;0.30;99.10;;;;;;5076731;28;20293;-81
2021/11/24 08:08:05;;;;;;;3.90;1.75;;;0.40;99.10;;;;;;5076288;28;20620;-81
2021/11/24 08:10:31;;;;;;;0.80;0.70;;;0.50;99.10;;;;;;5076553;28;20164;-81
2021/11/24 08:12:57;;;;;;;0.50;0.40;;;0.50;99.10;;;;;;5076426;28;20445;-81
2021/11/24 08:15:23;;;;;;;3.80;2.20;;;0.60;99.10;;;;;;5076449;28;20179;-81
2021/11/24 08:17:49;;;;;;;0.85;0.75;;;0.70;99.10;;;;;;5076650;28;20172;-81
2021/11/24 08:20:15;;;;;;;0.60;0.50;;;0.80;99.10;;;;;;5076796;28;20229;-81
2021/11/24 08:22:41;;;;;;;1.15;0.98;;;0.90;99.10;;;;;;5077322;28;20650;-81
2021/11/24 08:25:07;;;;;;;4.33;1.27;;;1.00;99.10;;;;;;5076432;28;20176;-81
2021/11/24 08:27:34;;;;;;;1.70;1.58;;;1.10;99.10;;;;;;5076245;28;20237;-81
2021/11/24 08:30:01;;;;;;;0.60;0.50;;;1.20;99.10;;;;;;5076397;28;20673;-81
2021/11/24 08:32:26;;;;;;;0.65;0.55;;;1.30;99.10;;;;;;5076580;28;20203;-81
2021/11/24 08:34:52;;;;;;;1.27;1.07;;;1.40;99.10;;;;;;5076823;28;20197;-82
2021/11/24 08:37:18;;;;;;;37.90;1.50;;;1.50;99.10;;;;;;5077206;28;20429;-82
2021/11/24 08:39:46;;;;;;;1.63;1.53;;;1.60;99.10;;;;;;5076985;28;20479;-82
2021/11/24 08:42:13;;;;;;;6.57;1.17;;;1.60;99.10;;;;;;5077191;28;20421;-81
2021/11/24 08:44:38;;;;;;;1.95;1.20;;;1.70;98.80;;;;;;5077739;28;20250;-81
2021/11/24 08:47:04;;;;;;;0.80;0.70;;;1.70;98.70;;;;;;5077201;28;20228;-81
2021/11/24 08:49:30;;;;;;;2.55;2.35;;;1.80;98.40;;;;;;5077426;28;21014;-82
2021/11/24 08:51:56;;;;;;;2.80;1.40;;;1.90;98.20;;;;;;5077963;28;20200;-84
2021/11/24 08:54:22;;;;;;;1.15;1.05;;;1.90;97.60;;;;;;5078231;28;20442;-82
2021/11/24 08:56:49;;;;;;;1.27;1.17;;;2.00;97.50;;;;;;5078395;28;20259;-84
2021/11/24 08:59:15;;;;;;;1.15;1.08;;;2.10;97.50;;;;;;5078694;28;20815;-85
2021/11/24 09:01:41;;;;;;;4.22;3.13;;;2.20;97.30;;;;;;5078278;28;20178;-83
2021/11/24 09:04:06;;;;;;;5.77;2.13;;;2.20;97.30;;;;;;5077466;28;20246;-83
2021/11/24 09:06:32;;;;;;;2.37;2.20;;;2.30;96.90;;;;;;5077901;28;20418;-82
2021/11/24 09:08:58;;;;;;;8.02;2.70;;;2.40;96.70;;;;;;5077449;28;20425;-82
2021/11/24 09:11:41;;;;;;;5.57;2.50;;;2.40;96.90;;;;;;5078042;28;20221;-83
2021/11/24 09:14:07;;;;;;;14.77;2.55;;;2.50;97.10;;;;;;5076995;28;20410;-83
2021/11/24 09:16:33;;;;;;;3.30;1.80;;;2.60;97.60;;;;;;5077314;28;20163;-83
2021/11/24 09:18:59;;;;;;;11.43;2.37;;;2.60;97.70;;;;;;5076360;28;20434;-82
2021/11/24 09:21:25;;;;;;;1.70;1.48;;;2.70;97.70;;;;;;5076686;28;20410;-83
2021/11/24 09:23:52;;;;;;;7.30;1.73;;;2.70;97.50;;;;;;5076749;28;20176;-82
2021/11/24 09:26:27;;;;;;;15.43;1.35;;;2.70;97.30;;;;;;5076546;28;20424;-82
2021/11/24 09:28:53;;;;;;;4.75;1.30;;;2.70;97.70;;;;;;5079944;28;20188;-81
2021/11/24 09:31:19;;;;;;;1.25;1.15;;;2.70;97.80;;;;;;5076924;28;20207;-84
2021/11/24 09:33:45;;;;;;;3.10;1.10;;;2.70;97.90;;;;;;5077224;28;20194;-83
2021/11/24 09:36:12;;;;;;;6.83;2.40;;;2.80;97.60;;;;;;5077647;28;20165;-82
2021/11/24 09:38:39;;;;;;;0.85;0.75;;;2.80;97.50;;;;;;5080077;28;20429;-81
2021/11/24 09:41:08;;;;;;;3.80;1.20;;;2.90;97.60;;;;;;5080766;28;20180;-81
2021/11/24 09:43:38;;;;;;;8.80;2.47;;;3.00;97.40;;;;;;5080667;28;20240;-81
2021/11/24 09:46:04;;;;;;;1.50;1.08;;;3.00;97.10;;;;;;5080878;28;20808;-81
2021/11/24 09:48:31;;;;;;;1.75;1.08;;;3.10;97.00;;;;;;5075094;28;20676;-81
2021/11/24 09:50:59;;;;;;;1.10;0.80;;;3.10;96.40;;;;;;5060857;28;20218;-81
2021/11/24 09:53:27;;;;;;;3.28;1.90;;;3.10;96.40;;;;;;5060852;28;20180;-81
2021/11/24 09:55:53;;;;;;;6.10;1.33;;;3.20;96.20;;;;;;5060843;28;20674;-81
2021/11/24 09:58:19;;;;;;;1.05;0.95;;;3.20;96.30;;;;;;5060553;28;20197;-81
2021/11/24 10:00:45;;;;;;;8.33;1.73;;;3.20;96.20;;;;;;5060588;28;20628;-81
2021/11/24 10:03:13;;;;;;;1.67;1.58;;;3.30;96.50;;;;;;5059487;28;20462;-81
2021/11/24 10:05:39;;;;;;;1.98;0.52;;;3.40;95.70;;;;;;5059293;28;20173;-81
2021/11/24 10:08:06;;;;;;;1.73;1.35;;;3.40;95.70;;;;;;5059636;28;20226;-81
2021/11/24 10:10:32;;;;;;;8.25;1.95;;;3.40;95.60;;;;;;5061306;28;20602;-81
2021/11/24 10:12:58;;;;;;;1.10;1.00;;;3.50;95.40;;;;;;5060103;28;20173;-81
2021/11/24 10:15:46;;;;;;;0.93;0.83;;;3.60;94.70;;;;;;5060173;28;20176;-81
2021/11/24 10:18:17;;;;;;;1.77;1.23;;;3.70;94.10;;;;;;5060012;28;20402;-82
2021/11/24 10:20:46;;;;;;;4.55;1.88;;;3.80;94.20;;;;;;5064892;28;20203;-81
2021/11/24 10:23:34;;;;;;;0.95;0.73;;;3.80;94.40;;;;;;5080205;28;20206;-81
2021/11/24 10:26:17;;;;;;;1.05;0.95;;;3.80;93.80;;;;;;5080168;28;20539;-81
2021/11/24 10:28:50;;;;;;;1.30;1.20;;;4.00;93.90;;;;;;5080667;28;20190;-81
2021/11/24 10:31:37;;;;;;;0.73;0.63;;;4.10;94.20;;;;;;5080511;28;20245;-81
2021/11/24 10:34:20;;;;;;;6.13;3.22;;;4.20;93.00;;;;;;5081296;28;20160;-81
2021/11/24 10:37:06;;;;;;;1.48;1.38;;;4.20;93.10;;;;;;5081795;28;20180;-81
2021/11/24 10:39:53;;;;;;;4.40;0.75;;;4.20;92.60;;;;;;5081570;28;20188;-81
2021/11/24 10:42:22;;;;;;;1.27;1.23;;;4.40;93.50;;;;;;5081304;28;20168;-81
2021/11/24 10:44:58;;;;;;;0.82;0.70;;;4.60;92.90;;;;;;5080040;28;20199;-81
2021/11/24 10:47:29;;;;;;;2.55;2.38;;;4.70;92.80;;;;;;5080802;28;20254;-81
2021/11/24 10:50:00;;;;;;;13.63;3.05;;;4.90;91.40;;;;;;5080562;28;20589;-81
2021/11/24 10:52:32;;;;;;;1.85;1.75;;;5.00;90.70;;;;;;5079934;28;20199;-81
2021/11/24 10:55:11;;;;;;;6.65;3.10;;;5.20;89.90;;;;;;5080820;28;20171;-81
2021/11/24 10:57:39;;;;;;;1.60;1.50;;;5.20;89.20;;;;;;5079769;28;20167;-81
2021/11/24 11:00:09;;;;;;;2.47;1.70;;;5.40;88.00;;;;;;5080538;28;20199;-81
2021/11/24 11:02:41;;;;;;;2.45;1.83;;;5.50;88.80;;;;;;5059897;28;20172;-81
2021/11/24 11:05:24;;;;;;;1.48;0.75;;;5.50;87.80;;;;;;5059889;28;20239;-81
2021/11/24 11:07:50;;;;;;;4.95;1.67;;;5.60;88.70;;;;;;5059977;28;20287;-81
2021/11/24 11:10:22;;;;;;;4.53;2.30;;;5.60;87.10;;;;;;5059935;28;20220;-82
2021/11/24 11:12:53;;;;;;;6.28;2.85;;;5.60;85.80;;;;;;5060060;28;20200;-82
2021/11/24 11:15:37;;;;;;;8.05;3.13;;;5.60;85.50;;;;;;5059170;28;20331;-81
2021/11/24 11:18:06;;;;;;;1.55;1.40;;;5.50;85.60;;;;;;5059284;28;20179;-81
2021/11/24 11:20:51;;;;;;;3.42;2.42;;;5.40;85.80;;;;;;5077611;28;20240;-81
2021/11/24 11:23:17;;;;;;;3.45;1.60;;;5.30;86.40;;;;;;5059104;28;20183;-81
2021/11/24 11:25:55;;;;;;;1.70;1.70;;;5.20;85.10;;;;;;5059122;28;20180;-81
2021/11/24 11:28:24;;;;;;;1.50;1.48;;;5.20;86.30;;;;;;5062862;28;20597;-81
2021/11/24 11:30:53;;;;;;;10.02;2.67;;;5.20;86.00;;;;;;5059206;28;20172;-82
2021/11/24 11:33:22;;;;;;;1.40;1.17;;;5.30;86.00;;;;;;5058543;28;20200;-82
2021/11/24 11:35:49;;;;;;;0.90;0.82;;;5.30;85.50;;;;;;5058310;28;20169;-82
2021/11/24 11:38:17;;;;;;;4.80;1.70;;;5.20;85.80;;;;;;5058063;28;20239;-82
2021/11/24 11:40:43;;;;;;;2.20;2.00;;;5.20;85.20;;;;;;5058203;28;20183;-82
2021/11/24 11:43:10;;;;;;;0.57;0.47;;;5.20;85.50;;;;;;5057362;28;20206;-82
2021/11/24 11:45:37;;;;;;;5.22;1.50;;;5.20;85.30;;;;;;5057352;28;20176;-82
2021/11/24 11:48:06;;;;;;;4.30;3.35;;;5.10;85.80;;;;;;5058741;28;20221;-82
2021/11/24 11:50:38;;;;;;;1.88;1.40;;;5.20;85.50;;;;;;5058743;28;20172;-82
2021/11/24 11:53:23;;;;;;;4.72;2.15;;;5.10;85.20;;;;;;5058319;28;20168;-82
2021/11/24 11:56:27;;;;;;;1.05;0.95;;;5.20;85.20;;;;;;5057640;28;20635;-81
2021/11/24 11:59:07;;;;;;;4.63;1.60;;;5.20;85.60;;;;;;5057493;28;20192;-82
2021/11/24 12:01:42;;;;;;;0.88;0.77;;;5.20;85.20;;;;;;5056812;28;20172;-81
2021/11/24 12:04:21;;;;;;;10.27;2.13;;;5.20;84.20;;;;;;5057117;28;20176;-82
2021/11/24 12:06:53;;;;;;;2.15;1.60;;;5.30;84.50;;;;;;5058264;28;20164;-82
2021/11/24 12:09:30;;;;;;;2.08;1.60;;;5.30;84.20;;;;;;5058088;28;20410;-82
2021/11/24 12:12:04;;;;;;;1.85;1.77;;;5.30;84.50;;;;;;5058008;28;20200;-82
2021/11/24 12:14:39;;;;;;;5.97;1.50;;;5.30;85.20;;;;;;5057850;28;20244;-82
2021/11/24 12:17:27;;;;;;;2.90;1.27;;;5.30;83.90;;;;;;5056813;28;20164;-82
2021/11/24 12:19:53;;;;;;;6.28;1.92;;;5.20;84.40;;;;;;5057038;28;20203;-81
2021/11/24 12:22:53;;;;;;;6.03;3.28;;;5.20;84.20;;;;;;5056482;28;20181;-82
2021/11/24 12:25:27;;;;;;;2.75;1.50;;;5.20;85.50;;;;;;5037021;28;20735;-81
2021/11/24 12:27:53;;;;;;;5.28;2.45;;;5.30;84.80;;;;;;5072622;28;20166;-82
2021/11/24 12:33:06;;;;;;;3.72;1.63;;;5.30;84.50;;;;;;5095633;28;20519;-81
2021/11/24 12:35:35;;;;;;;1.02;0.93;;;5.40;84.40;;;;;;5077099;28;20171;-82
2021/11/24 12:38:01;;;;;;;3.63;1.67;;;5.50;83.70;;;;;;5077468;28;20170;-82
2021/11/24 12:40:28;;;;;;;1.30;0.95;;;5.40;83.30;;;;;;5077593;28;20171;-81
2021/11/24 12:42:59;;;;;;;1.85;0.80;;;5.30;83.90;;;;;;5076765;28;20215;-81
2021/11/24 12:45:25;;;;;;;6.18;2.25;;;5.30;84.40;;;;;;5077008;28;20170;-81
2021/11/24 12:48:07;;;;;;;1.33;1.23;;;5.30;84.40;;;;;;5076432;28;20176;-82
2021/11/24 12:50:34;;;;;;;1.08;0.93;;;5.30;83.80;;;;;;5076546;28;20554;-82
2021/11/24 12:53:06;;;;;;;0.85;0.75;;;5.40;84.90;;;;;;5070550;28;20618;-82
2021/11/24 12:55:35;;;;;;;2.67;2.05;;;5.30;84.40;;;;;;5056282;28;20188;-81
2021/11/24 12:58:27;;;;;;;3.00;1.08;;;5.30;85.10;;;;;;5056253;28;20194;-82